createdAt,value
2019-01-03T00:00:21.221Z,1023.00
2019-01-03T00:01:21.259Z,1022.96
2019-01-03T00:02:21.178Z,1022.98
2019-01-03T00:03:21.179Z,1022.96
2019-01-03T00:04:21.170Z,1022.96
2019-01-03T00:05:21.182Z,1023.01
2019-01-03T00:06:21.154Z,1022.99
2019-01-03T00:07:21.135Z,1023.00
2019-01-03T00:08:21.119Z,1023.02
2019-01-03T00:09:21.120Z,1022.99
2019-01-03T00:10:21.102Z,1023.03
2019-01-03T00:11:21.089Z,1023.01
2019-01-03T00:12:21.170Z,1023.00
2019-01-03T00:13:21.118Z,1023.03
2019-01-03T00:14:21.068Z,1023.03
2019-01-03T00:15:21.067Z,1022.98
2019-01-03T00:16:21.031Z,1023.00
2019-01-03T00:17:21.019Z,1022.99
2019-01-03T00:18:21.055Z,1022.96
2019-01-03T00:19:21.054Z,1022.95
2019-01-03T00:20:21.046Z,1022.95
2019-01-03T00:21:21.045Z,1022.95
2019-01-03T00:22:21.006Z,1022.94
2019-01-03T00:23:21.018Z,1022.93
2019-01-03T00:24:20.956Z,1022.95
2019-01-03T00:25:20.983Z,1022.95
2019-01-03T00:26:20.969Z,1022.96
2019-01-03T00:27:20.981Z,1022.96
2019-01-03T00:28:20.931Z,1022.92
2019-01-03T00:29:20.908Z,1022.96
2019-01-03T00:30:20.919Z,1022.94
2019-01-03T00:31:20.897Z,1022.95
2019-01-03T00:32:20.879Z,1022.96
2019-01-03T00:33:20.877Z,1022.92
2019-01-03T00:34:20.847Z,1022.95
2019-01-03T00:35:20.918Z,1022.97
2019-01-03T00:36:20.847Z,1022.94
2019-01-03T00:37:20.839Z,1022.97
2019-01-03T00:38:20.868Z,1022.95
2019-01-03T00:39:20.816Z,1022.97
2019-01-03T00:40:20.777Z,1023.02
2019-01-03T00:41:20.811Z,1023.05
2019-01-03T00:42:20.783Z,1023.05
2019-01-03T00:43:20.775Z,1023.07
2019-01-03T00:44:20.787Z,1023.05
2019-01-03T00:45:20.824Z,1023.03
2019-01-03T00:46:20.759Z,1023.06
2019-01-03T00:47:20.734Z,1023.07
2019-01-03T00:48:20.721Z,1023.05
2019-01-03T00:49:20.734Z,1023.08
2019-01-03T00:50:20.680Z,1023.06
2019-01-03T00:51:20.744Z,1023.11
2019-01-03T00:52:20.817Z,1023.09
2019-01-03T00:53:20.655Z,1023.06
2019-01-03T00:54:20.646Z,1023.07
2019-01-03T00:55:20.653Z,1023.11
2019-01-03T00:56:20.624Z,1023.09
2019-01-03T00:57:20.636Z,1023.11
2019-01-03T00:58:20.591Z,1023.08
2019-01-03T00:59:20.624Z,1023.07
2019-01-03T01:00:20.594Z,1023.01
2019-01-03T01:01:20.563Z,1023.05
2019-01-03T01:02:20.576Z,1023.06
2019-01-03T01:03:20.579Z,1023.01
2019-01-03T01:04:20.529Z,1023.00
2019-01-03T01:05:20.591Z,1023.00
2019-01-03T01:06:20.545Z,1023.02
2019-01-03T01:07:20.534Z,1023.01
2019-01-03T01:08:20.554Z,1023.05
2019-01-03T01:09:20.533Z,1023.04
2019-01-03T01:10:20.524Z,1023.01
2019-01-03T01:11:20.518Z,1022.98
2019-01-03T01:12:20.486Z,1022.98
2019-01-03T01:13:20.470Z,1023.00
2019-01-03T01:14:20.450Z,1023.00
2019-01-03T01:15:20.437Z,1023.03
2019-01-03T01:16:20.419Z,1023.07
2019-01-03T01:17:20.467Z,1023.09
2019-01-03T01:18:20.421Z,1023.14
2019-01-03T01:19:20.381Z,1023.14
2019-01-03T01:20:20.361Z,1023.14
2019-01-03T01:21:20.352Z,1023.18
2019-01-03T01:22:20.422Z,1023.20
2019-01-03T01:23:20.366Z,1023.18
2019-01-03T01:24:20.358Z,1023.19
2019-01-03T01:25:20.357Z,1023.17
2019-01-03T01:26:20.306Z,1023.20
2019-01-03T01:27:20.310Z,1023.24
2019-01-03T01:28:20.323Z,1023.25
2019-01-03T01:29:20.405Z,1023.27
2019-01-03T01:30:20.266Z,1023.26
2019-01-03T01:31:20.313Z,1023.24
2019-01-03T01:32:20.263Z,1023.22
2019-01-03T01:33:20.306Z,1023.25
2019-01-03T01:34:20.227Z,1023.30
2019-01-03T01:35:20.283Z,1023.27
2019-01-03T01:36:20.197Z,1023.32
2019-01-03T01:37:20.206Z,1023.35
2019-01-03T01:38:20.184Z,1023.36
2019-01-03T01:39:20.182Z,1023.37
2019-01-03T01:40:20.213Z,1023.37
2019-01-03T01:41:20.135Z,1023.41
2019-01-03T01:42:20.167Z,1023.39
2019-01-03T01:43:20.156Z,1023.42
2019-01-03T01:44:20.137Z,1023.48
2019-01-03T01:45:20.108Z,1023.42
2019-01-03T01:46:20.108Z,1023.46
2019-01-03T01:47:20.095Z,1023.49
2019-01-03T01:48:20.101Z,1023.50
2019-01-03T01:49:20.128Z,1023.48
2019-01-03T01:50:20.072Z,1023.48
2019-01-03T01:51:20.042Z,1023.44
2019-01-03T01:52:20.056Z,1023.46
2019-01-03T01:53:20.009Z,1023.44
2019-01-03T01:54:20.000Z,1023.48
2019-01-03T01:55:20.041Z,1023.44
2019-01-03T01:56:19.990Z,1023.43
2019-01-03T01:57:19.986Z,1023.36
2019-01-03T01:58:19.969Z,1023.43
2019-01-03T01:59:19.957Z,1023.43
2019-01-03T02:00:19.961Z,1023.40
2019-01-03T02:01:19.960Z,1023.42
2019-01-03T02:02:19.982Z,1023.38
2019-01-03T02:03:20.047Z,1023.38
2019-01-03T02:04:19.907Z,1023.40
2019-01-03T02:05:19.981Z,1023.37
2019-01-03T02:06:19.951Z,1023.38
2019-01-03T02:07:19.868Z,1023.42
2019-01-03T02:08:19.959Z,1023.47
2019-01-03T02:09:19.890Z,1023.52
2019-01-03T02:10:19.832Z,1023.55
2019-01-03T02:11:19.841Z,1023.52
2019-01-03T02:12:19.840Z,1023.51
2019-01-03T02:13:19.850Z,1023.52
2019-01-03T02:14:19.838Z,1023.50
2019-01-03T02:15:19.801Z,1023.48
2019-01-03T02:16:19.790Z,1023.63
2019-01-03T02:17:19.801Z,1023.71
2019-01-03T02:18:19.792Z,1023.81
2019-01-03T02:19:19.779Z,1023.72
2019-01-03T02:20:19.774Z,1023.71
2019-01-03T02:21:19.738Z,1023.73
2019-01-03T02:22:19.718Z,1023.76
2019-01-03T02:23:19.687Z,1023.85
2019-01-03T02:24:19.682Z,1023.76
2019-01-03T02:25:19.709Z,1023.64
2019-01-03T02:26:19.669Z,1023.63
2019-01-03T02:27:19.669Z,1023.61
2019-01-03T02:28:19.672Z,1023.58
2019-01-03T02:29:19.666Z,1023.50
2019-01-03T02:30:19.626Z,1023.48
2019-01-03T02:31:19.618Z,1023.46
2019-01-03T02:32:19.614Z,1023.47
2019-01-03T02:33:19.603Z,1023.45
2019-01-03T02:34:19.591Z,1023.48
2019-01-03T02:35:19.557Z,1023.41
2019-01-03T02:36:19.626Z,1023.38
2019-01-03T02:37:19.710Z,1023.42
2019-01-03T02:38:19.534Z,1023.38
2019-01-03T02:39:19.536Z,1023.42
2019-01-03T02:40:19.521Z,1023.33
2019-01-03T02:41:19.526Z,1023.39
2019-01-03T02:42:19.526Z,1023.35
2019-01-03T02:43:19.571Z,1023.28
2019-01-03T02:44:19.559Z,1023.20
2019-01-03T02:45:19.513Z,1023.16
2019-01-03T02:46:19.447Z,1023.12
2019-01-03T02:47:19.450Z,1023.15
2019-01-03T02:48:19.419Z,1023.16
2019-01-03T02:49:19.431Z,1023.18
2019-01-03T02:50:19.427Z,1023.17
2019-01-03T02:51:19.421Z,1023.18
2019-01-03T02:52:19.410Z,1023.24
2019-01-03T02:53:19.540Z,1023.27
2019-01-03T02:54:19.465Z,1023.29
2019-01-03T02:55:19.368Z,1023.29
2019-01-03T02:56:19.351Z,1023.25
2019-01-03T02:57:19.363Z,1023.32
2019-01-03T02:58:19.340Z,1023.33
2019-01-03T02:59:19.342Z,1023.33
2019-01-03T03:00:19.302Z,1023.33
2019-01-03T03:01:19.348Z,1023.30
2019-01-03T03:02:19.345Z,1023.29
2019-01-03T03:03:19.280Z,1023.28
2019-01-03T03:04:19.282Z,1023.25
2019-01-03T03:05:19.268Z,1023.16
2019-01-03T03:06:19.290Z,1023.19
2019-01-03T03:07:19.225Z,1023.16
2019-01-03T03:08:19.221Z,1023.21
2019-01-03T03:09:19.219Z,1023.16
2019-01-03T03:10:19.191Z,1023.16
2019-01-03T03:11:19.179Z,1023.09
2019-01-03T03:12:19.201Z,1023.09
2019-01-03T03:13:19.179Z,1023.08
2019-01-03T03:14:19.176Z,1023.03
2019-01-03T03:15:19.286Z,1023.02
2019-01-03T03:16:19.128Z,1022.97
2019-01-03T03:17:19.115Z,1022.91
2019-01-03T03:18:19.111Z,1022.83
2019-01-03T03:19:19.102Z,1022.80
2019-01-03T03:20:19.074Z,1022.86
2019-01-03T03:21:19.072Z,1022.88
2019-01-03T03:22:19.070Z,1022.85
2019-01-03T03:23:19.056Z,1022.81
2019-01-03T03:24:19.058Z,1022.85
2019-01-03T03:25:19.059Z,1022.84
2019-01-03T03:26:19.025Z,1022.84
2019-01-03T03:27:19.029Z,1022.77
2019-01-03T03:28:18.995Z,1022.74
2019-01-03T03:29:19.048Z,1022.76
2019-01-03T03:30:19.072Z,1022.74
2019-01-03T03:31:18.969Z,1022.75
2019-01-03T03:32:18.977Z,1022.69
2019-01-03T03:33:18.958Z,1022.66
2019-01-03T03:34:18.961Z,1022.66
2019-01-03T03:35:18.938Z,1022.64
2019-01-03T03:36:18.908Z,1022.65
2019-01-03T03:37:18.927Z,1022.70
2019-01-03T03:38:18.884Z,1022.64
2019-01-03T03:39:18.907Z,1022.64
2019-01-03T03:40:18.900Z,1022.58
2019-01-03T03:41:18.872Z,1022.54
2019-01-03T03:42:18.860Z,1022.58
2019-01-03T03:43:18.853Z,1022.65
2019-01-03T03:44:18.841Z,1022.56
2019-01-03T03:45:18.822Z,1022.57
2019-01-03T03:46:18.843Z,1022.60
2019-01-03T03:47:18.802Z,1022.59
2019-01-03T03:48:18.800Z,1022.60
2019-01-03T03:49:18.848Z,1022.61
2019-01-03T03:50:18.834Z,1022.59
2019-01-03T03:51:18.795Z,1022.54
2019-01-03T03:52:18.727Z,1022.55
2019-01-03T03:53:18.747Z,1022.52
2019-01-03T03:54:18.717Z,1022.55
2019-01-03T03:55:18.716Z,1022.55
2019-01-03T03:56:18.718Z,1022.50
2019-01-03T03:57:18.698Z,1022.52
2019-01-03T03:58:18.685Z,1022.51
2019-01-03T03:59:18.649Z,1022.50
2019-01-03T04:00:18.671Z,1022.55
2019-01-03T04:01:18.652Z,1022.59
2019-01-03T04:02:18.668Z,1022.62
2019-01-03T04:03:18.619Z,1022.64
2019-01-03T04:04:18.594Z,1022.64
2019-01-03T04:05:18.590Z,1022.64
2019-01-03T04:06:18.608Z,1022.65
2019-01-03T04:07:18.609Z,1022.64
2019-01-03T04:08:18.579Z,1022.71
2019-01-03T04:09:18.554Z,1022.72
2019-01-03T04:10:18.530Z,1022.73
2019-01-03T04:11:18.523Z,1022.75
2019-01-03T04:12:18.522Z,1022.75
2019-01-03T04:13:18.524Z,1022.74
2019-01-03T04:14:18.497Z,1022.68
2019-01-03T04:15:18.490Z,1022.65
2019-01-03T04:16:18.493Z,1022.63
2019-01-03T04:17:18.515Z,1022.67
2019-01-03T04:18:18.459Z,1022.66
2019-01-03T04:19:18.496Z,1022.69
2019-01-03T04:20:18.595Z,1022.69
2019-01-03T04:21:18.421Z,1022.64
2019-01-03T04:22:18.432Z,1022.66
2019-01-03T04:23:18.440Z,1022.65
2019-01-03T04:24:18.453Z,1022.66
2019-01-03T04:25:18.404Z,1022.62
2019-01-03T04:26:18.360Z,1022.59
2019-01-03T04:27:18.423Z,1022.62
2019-01-03T04:28:18.368Z,1022.61
2019-01-03T04:29:18.347Z,1022.62
2019-01-03T04:30:18.319Z,1022.63
2019-01-03T04:31:18.322Z,1022.64
2019-01-03T04:32:18.293Z,1022.66
2019-01-03T04:33:18.355Z,1022.69
2019-01-03T04:34:18.284Z,1022.67
2019-01-03T04:35:18.274Z,1022.72
2019-01-03T04:36:18.288Z,1022.71
2019-01-03T04:37:18.245Z,1022.71
2019-01-03T04:38:18.248Z,1022.74
2019-01-03T04:39:18.255Z,1022.71
2019-01-03T04:40:18.241Z,1022.74
2019-01-03T04:41:18.213Z,1022.69
2019-01-03T04:42:18.211Z,1022.66
2019-01-03T04:43:18.204Z,1022.70
2019-01-03T04:44:18.217Z,1022.69
2019-01-03T04:45:18.162Z,1022.68
2019-01-03T04:46:18.156Z,1022.62
2019-01-03T04:47:18.156Z,1022.61
2019-01-03T04:48:18.162Z,1022.59
2019-01-03T04:49:18.130Z,1022.57
2019-01-03T04:50:18.106Z,1022.55
2019-01-03T04:51:18.091Z,1022.57
2019-01-03T04:52:18.089Z,1022.59
2019-01-03T04:53:18.104Z,1022.60
2019-01-03T04:54:18.064Z,1022.59
2019-01-03T04:55:18.069Z,1022.56
2019-01-03T04:56:18.048Z,1022.57
2019-01-03T04:57:18.043Z,1022.54
2019-01-03T04:58:18.047Z,1022.55
2019-01-03T04:59:18.040Z,1022.54
2019-01-03T05:00:18.034Z,1022.54
2019-01-03T05:01:18.003Z,1022.55
2019-01-03T05:02:17.983Z,1022.51
2019-01-03T05:03:17.959Z,1022.52
2019-01-03T05:04:18.009Z,1022.53
2019-01-03T05:05:18.074Z,1022.55
2019-01-03T05:06:17.971Z,1022.58
2019-01-03T05:07:17.943Z,1022.56
2019-01-03T05:08:17.929Z,1022.58
2019-01-03T05:09:17.906Z,1022.59
2019-01-03T05:10:17.913Z,1022.61
2019-01-03T05:11:17.927Z,1022.62
2019-01-03T05:12:17.889Z,1022.53
2019-01-03T05:13:17.874Z,1022.62
2019-01-03T05:14:17.872Z,1022.60
2019-01-03T05:15:17.847Z,1022.53
2019-01-03T05:16:17.830Z,1022.56
2019-01-03T05:17:17.845Z,1022.48
2019-01-03T05:18:17.827Z,1022.53
2019-01-03T05:19:17.798Z,1022.47
2019-01-03T05:20:17.843Z,1022.52
2019-01-03T05:21:17.784Z,1022.49
2019-01-03T05:22:17.823Z,1022.48
2019-01-03T05:23:17.787Z,1022.49
2019-01-03T05:24:17.759Z,1022.50
2019-01-03T05:25:17.764Z,1022.51
2019-01-03T05:26:17.777Z,1022.50
2019-01-03T05:27:17.731Z,1022.49
2019-01-03T05:28:17.734Z,1022.53
2019-01-03T05:29:17.712Z,1022.52
2019-01-03T05:30:18.412Z,1022.56
2019-01-03T05:31:17.730Z,1022.60
2019-01-03T05:32:17.669Z,1022.56
2019-01-03T05:33:17.670Z,1022.57
2019-01-03T05:34:17.761Z,1022.58
2019-01-03T05:35:17.645Z,1022.55
2019-01-03T05:36:17.645Z,1022.55
2019-01-03T05:37:17.607Z,1022.56
2019-01-03T05:38:17.703Z,1022.54
2019-01-03T05:39:17.601Z,1022.53
2019-01-03T05:40:17.591Z,1022.56
2019-01-03T05:41:17.635Z,1022.55
2019-01-03T05:42:17.552Z,1022.50
2019-01-03T05:43:17.549Z,1022.49
2019-01-03T05:44:17.548Z,1022.49
2019-01-03T05:45:17.581Z,1022.48
2019-01-03T05:46:17.552Z,1022.49
2019-01-03T05:47:17.666Z,1022.45
2019-01-03T05:48:17.509Z,1022.44
2019-01-03T05:49:17.484Z,1022.45
2019-01-03T05:50:17.473Z,1022.47
2019-01-03T05:51:17.505Z,1022.44
2019-01-03T05:52:17.479Z,1022.47
2019-01-03T05:53:17.501Z,1022.48
2019-01-03T05:54:17.458Z,1022.55
2019-01-03T05:55:17.443Z,1022.54
2019-01-03T05:56:17.457Z,1022.57
2019-01-03T05:57:17.473Z,1022.49
2019-01-03T05:58:17.448Z,1022.43
2019-01-03T05:59:17.418Z,1022.40
2019-01-03T06:00:17.363Z,1022.42
2019-01-03T06:01:17.525Z,1022.42
2019-01-03T06:02:17.377Z,1022.45
2019-01-03T06:03:17.448Z,1022.38
2019-01-03T06:04:17.365Z,1022.48
2019-01-03T06:05:17.325Z,1022.47
2019-01-03T06:06:17.299Z,1022.54
2019-01-03T06:07:17.304Z,1022.57
2019-01-03T06:08:17.289Z,1022.57
2019-01-03T06:09:17.320Z,1022.60
2019-01-03T06:10:17.326Z,1022.60
2019-01-03T06:11:17.262Z,1022.59
2019-01-03T06:12:17.246Z,1022.60
2019-01-03T06:13:17.233Z,1022.58
2019-01-03T06:14:17.257Z,1022.62
2019-01-03T06:15:17.231Z,1022.63
2019-01-03T06:16:17.237Z,1022.63
2019-01-03T06:17:17.205Z,1022.61
2019-01-03T06:18:17.170Z,1022.60
2019-01-03T06:19:17.175Z,1022.61
2019-01-03T06:20:17.151Z,1022.58
2019-01-03T06:21:17.210Z,1022.59
2019-01-03T06:22:17.194Z,1022.59
2019-01-03T06:23:17.183Z,1022.54
2019-01-03T06:24:17.191Z,1022.54
2019-01-03T06:25:17.178Z,1022.53
2019-01-03T06:26:17.232Z,1022.53
2019-01-03T06:27:17.097Z,1022.55
2019-01-03T06:28:17.071Z,1022.56
2019-01-03T06:29:17.128Z,1022.55
2019-01-03T06:30:17.044Z,1022.61
2019-01-03T06:31:17.068Z,1022.61
2019-01-03T06:32:17.063Z,1022.58
2019-01-03T06:33:17.043Z,1022.57
2019-01-03T06:34:17.172Z,1022.56
2019-01-03T06:35:17.005Z,1022.58
2019-01-03T06:36:16.991Z,1022.59
2019-01-03T06:37:17.081Z,1022.58
2019-01-03T06:38:16.972Z,1022.63
2019-01-03T06:39:16.960Z,1022.61
2019-01-03T06:40:16.977Z,1022.61
2019-01-03T06:41:16.996Z,1022.63
2019-01-03T06:42:16.965Z,1022.65
2019-01-03T06:43:16.919Z,1022.66
2019-01-03T06:44:16.929Z,1022.65
2019-01-03T06:45:16.959Z,1022.70
2019-01-03T06:46:16.893Z,1022.70
2019-01-03T06:47:16.919Z,1022.77
2019-01-03T06:48:20.108Z,1022.75
2019-01-03T06:49:16.844Z,1022.72
2019-01-03T06:50:16.905Z,1022.78
2019-01-03T06:51:16.916Z,1022.76
2019-01-03T06:52:16.903Z,1022.77
2019-01-03T06:53:16.812Z,1022.74
2019-01-03T06:54:16.801Z,1022.76
2019-01-03T06:55:16.831Z,1022.75
2019-01-03T06:56:16.790Z,1022.74
2019-01-03T06:57:16.769Z,1022.75
2019-01-03T06:58:16.757Z,1022.72
2019-01-03T06:59:16.750Z,1022.74
2019-01-03T07:00:16.762Z,1022.73
2019-01-03T07:01:16.739Z,1022.71
2019-01-03T07:02:16.729Z,1022.72
2019-01-03T07:03:16.698Z,1022.73
2019-01-03T07:04:16.684Z,1022.75
2019-01-03T07:05:16.735Z,1022.80
2019-01-03T07:06:16.688Z,1022.76
2019-01-03T07:07:16.718Z,1022.77
2019-01-03T07:08:16.670Z,1022.75
2019-01-03T07:09:16.631Z,1022.74
2019-01-03T07:10:16.625Z,1022.73
2019-01-03T07:11:21.988Z,1022.74
2019-01-03T07:12:17.628Z,1022.77
2019-01-03T07:13:16.715Z,1022.80
2019-01-03T07:14:16.626Z,1022.81
2019-01-03T07:15:16.576Z,1022.82
2019-01-03T07:16:16.549Z,1022.88
2019-01-03T07:17:16.565Z,1022.88
2019-01-03T07:18:16.552Z,1022.87
2019-01-03T07:19:16.527Z,1022.86
2019-01-03T07:20:16.518Z,1022.81
2019-01-03T07:21:16.517Z,1022.90
2019-01-03T07:22:16.593Z,1022.86
2019-01-03T07:23:16.598Z,1022.87
2019-01-03T07:24:16.516Z,1022.84
2019-01-03T07:25:16.496Z,1022.77
2019-01-03T07:26:16.456Z,1022.79
2019-01-03T07:27:16.464Z,1022.80
2019-01-03T07:28:16.466Z,1022.81
2019-01-03T07:29:16.458Z,1022.78
2019-01-03T07:30:16.455Z,1022.78
2019-01-03T07:31:16.439Z,1022.78
2019-01-03T07:32:16.447Z,1022.77
2019-01-03T07:33:16.454Z,1022.75
2019-01-03T07:34:16.387Z,1022.76
2019-01-03T07:35:16.364Z,1022.75
2019-01-03T07:36:16.423Z,1022.75
2019-01-03T07:37:16.333Z,1022.78
2019-01-03T07:38:16.344Z,1022.80
2019-01-03T07:39:16.376Z,1022.83
2019-01-03T07:40:16.315Z,1022.88
2019-01-03T07:41:16.312Z,1022.91
2019-01-03T07:42:16.289Z,1022.86
2019-01-03T07:43:16.390Z,1022.88
2019-01-03T07:44:16.253Z,1022.89
2019-01-03T07:45:16.244Z,1022.87
2019-01-03T07:46:16.303Z,1022.91
2019-01-03T07:47:16.286Z,1022.82
2019-01-03T07:48:16.221Z,1022.86
2019-01-03T07:49:16.259Z,1022.87
2019-01-03T07:50:16.262Z,1022.91
2019-01-03T07:51:16.207Z,1022.97
2019-01-03T07:52:16.260Z,1023.03
2019-01-03T07:53:16.184Z,1022.97
2019-01-03T07:54:16.177Z,1022.98
2019-01-03T07:55:16.140Z,1022.95
2019-01-03T07:56:16.126Z,1022.97
2019-01-03T07:57:16.115Z,1023.01
2019-01-03T07:58:16.151Z,1022.93
2019-01-03T07:59:16.148Z,1022.94
2019-01-03T08:00:16.115Z,1022.94
2019-01-03T08:01:16.101Z,1022.93
2019-01-03T08:02:16.061Z,1023.00
2019-01-03T08:03:16.074Z,1022.91
2019-01-03T08:04:16.067Z,1022.97
2019-01-03T08:05:16.029Z,1022.96
2019-01-03T08:06:16.064Z,1022.98
2019-01-03T08:07:16.000Z,1022.95
2019-01-03T08:08:15.997Z,1022.95
2019-01-03T08:09:16.119Z,1022.98
2019-01-03T08:10:15.987Z,1022.97
2019-01-03T08:11:15.967Z,1022.97
2019-01-03T08:12:15.976Z,1023.02
2019-01-03T08:13:15.944Z,1023.04
2019-01-03T08:14:15.988Z,1023.00
2019-01-03T08:15:15.932Z,1023.08
2019-01-03T08:16:15.973Z,1023.08
2019-01-03T08:17:15.982Z,1023.08
2019-01-03T08:18:15.910Z,1023.10
2019-01-03T08:19:15.891Z,1023.04
2019-01-03T08:20:15.880Z,1023.04
2019-01-03T08:21:15.859Z,1023.06
2019-01-03T08:22:15.864Z,1023.09
2019-01-03T08:23:15.874Z,1023.05
2019-01-03T08:24:15.883Z,1023.10
2019-01-03T08:25:15.844Z,1023.02
2019-01-03T08:26:15.810Z,1023.03
2019-01-03T08:27:15.800Z,1023.07
2019-01-03T08:28:15.808Z,1023.02
2019-01-03T08:29:15.790Z,1023.03
2019-01-03T08:30:15.792Z,1023.08
2019-01-03T08:31:15.765Z,1023.06
2019-01-03T08:32:15.745Z,1023.10
2019-01-03T08:33:15.818Z,1023.11
2019-01-03T08:34:15.714Z,1023.10
2019-01-03T08:35:15.705Z,1023.09
2019-01-03T08:36:15.707Z,1023.07
2019-01-03T08:37:15.703Z,1023.04
2019-01-03T08:38:15.679Z,1023.08
2019-01-03T08:39:15.745Z,1023.07
2019-01-03T08:40:15.666Z,1023.08
2019-01-03T08:41:15.655Z,1023.10
2019-01-03T08:42:15.630Z,1023.10
2019-01-03T08:43:15.623Z,1023.10
2019-01-03T08:44:15.629Z,1023.11
2019-01-03T08:45:15.686Z,1023.09
2019-01-03T08:46:15.640Z,1023.10
2019-01-03T08:47:15.639Z,1023.11
2019-01-03T08:48:15.563Z,1023.08
2019-01-03T08:49:15.554Z,1023.17
2019-01-03T08:50:15.580Z,1023.11
2019-01-03T08:51:15.550Z,1023.10
2019-01-03T08:52:15.541Z,1023.09
2019-01-03T08:53:15.518Z,1023.10
2019-01-03T08:54:15.504Z,1023.17
2019-01-03T08:55:15.498Z,1023.11
2019-01-03T08:56:15.613Z,1023.14
2019-01-03T08:57:15.476Z,1023.15
2019-01-03T08:58:15.468Z,1023.16
2019-01-03T08:59:15.481Z,1023.21
2019-01-03T09:00:15.438Z,1023.17
2019-01-03T09:01:15.461Z,1023.24
2019-01-03T09:02:15.462Z,1023.28
2019-01-03T09:03:15.413Z,1023.25
2019-01-03T09:04:15.419Z,1023.27
2019-01-03T09:05:15.383Z,1023.25
2019-01-03T09:06:15.440Z,1023.22
2019-01-03T09:07:15.372Z,1023.25
2019-01-03T09:08:15.407Z,1023.30
2019-01-03T09:09:15.413Z,1023.30
2019-01-03T09:10:15.323Z,1023.27
2019-01-03T09:11:15.356Z,1023.36
2019-01-03T09:12:15.389Z,1023.31
2019-01-03T09:13:15.291Z,1023.34
2019-01-03T09:14:15.303Z,1023.29
2019-01-03T09:15:15.311Z,1023.27
2019-01-03T09:16:15.288Z,1023.26
2019-01-03T09:17:15.297Z,1023.26
2019-01-03T09:18:15.283Z,1023.29
2019-01-03T09:19:15.232Z,1023.34
2019-01-03T09:20:15.221Z,1023.31
2019-01-03T09:21:15.230Z,1023.31
2019-01-03T09:22:15.239Z,1023.27
2019-01-03T09:23:15.323Z,1023.31
2019-01-03T09:24:15.175Z,1023.29
2019-01-03T09:25:15.221Z,1023.27
2019-01-03T09:26:15.215Z,1023.24
2019-01-03T09:27:15.153Z,1023.24
2019-01-03T09:28:15.228Z,1023.27
2019-01-03T09:29:15.160Z,1023.28
2019-01-03T09:30:15.138Z,1023.29
2019-01-03T09:31:15.130Z,1023.23
2019-01-03T09:32:15.187Z,1023.25
2019-01-03T09:33:15.141Z,1023.18
2019-01-03T09:34:15.092Z,1023.24
2019-01-03T09:35:15.081Z,1023.27
2019-01-03T09:36:15.077Z,1023.29
2019-01-03T09:37:15.049Z,1023.31
2019-01-03T09:38:15.052Z,1023.28
2019-01-03T09:39:15.035Z,1023.31
2019-01-03T09:40:15.044Z,1023.31
2019-01-03T09:41:15.039Z,1023.27
2019-01-03T09:42:14.981Z,1023.31
2019-01-03T09:43:15.031Z,1023.31
2019-01-03T09:44:14.960Z,1023.30
2019-01-03T09:45:14.946Z,1023.31
2019-01-03T09:46:14.956Z,1023.34
2019-01-03T09:47:14.952Z,1023.30
2019-01-03T09:48:14.944Z,1023.32
2019-01-03T09:49:14.936Z,1023.29
2019-01-03T09:50:14.936Z,1023.36
2019-01-03T09:51:14.899Z,1023.30
2019-01-03T09:52:14.887Z,1023.30
2019-01-03T09:53:14.883Z,1023.34
2019-01-03T09:54:14.953Z,1023.35
2019-01-03T09:55:14.855Z,1023.31
2019-01-03T09:56:14.899Z,1023.27
2019-01-03T09:57:14.881Z,1023.26
2019-01-03T09:58:14.821Z,1023.21
2019-01-03T09:59:14.828Z,1023.25
2019-01-03T10:00:14.867Z,1023.26
2019-01-03T10:01:14.787Z,1023.26
2019-01-03T10:02:14.788Z,1023.27
2019-01-03T10:03:14.794Z,1023.29
2019-01-03T10:04:14.793Z,1023.35
2019-01-03T10:05:14.779Z,1023.38
2019-01-03T10:06:14.734Z,1023.33
2019-01-03T10:07:14.740Z,1023.33
2019-01-03T10:08:19.556Z,1023.27
2019-01-03T10:09:15.711Z,1023.28
2019-01-03T10:10:14.687Z,1023.29
2019-01-03T10:11:14.714Z,1023.26
2019-01-03T10:12:14.673Z,1023.25
2019-01-03T10:13:14.672Z,1023.21
2019-01-03T10:14:14.655Z,1023.22
2019-01-03T10:15:14.662Z,1023.20
2019-01-03T10:16:14.664Z,1023.17
2019-01-03T10:17:14.667Z,1023.20
2019-01-03T10:18:14.609Z,1023.14
2019-01-03T10:19:14.595Z,1023.19
2019-01-03T10:20:14.634Z,1023.16
2019-01-03T10:21:14.605Z,1023.22
2019-01-03T10:22:14.554Z,1023.18
2019-01-03T10:23:14.557Z,1023.21
2019-01-03T10:24:14.555Z,1023.23
2019-01-03T10:25:14.519Z,1023.23
2019-01-03T10:26:14.528Z,1023.22
2019-01-03T10:27:14.522Z,1023.25
2019-01-03T10:28:14.493Z,1023.24
2019-01-03T10:29:14.496Z,1023.25
2019-01-03T10:30:14.526Z,1023.13
2019-01-03T10:31:14.475Z,1023.20
2019-01-03T10:32:14.449Z,1023.19
2019-01-03T10:33:14.441Z,1023.18
2019-01-03T10:34:14.417Z,1023.14
2019-01-03T10:35:14.414Z,1023.16
2019-01-03T10:36:14.426Z,1023.19
2019-01-03T10:37:14.387Z,1023.23
2019-01-03T10:38:14.433Z,1023.19
2019-01-03T10:39:14.377Z,1023.19
2019-01-03T10:40:14.365Z,1023.15
2019-01-03T10:41:14.353Z,1023.18
2019-01-03T10:42:14.390Z,1023.16
2019-01-03T10:43:14.345Z,1023.21
2019-01-03T10:44:14.316Z,1023.15
2019-01-03T10:45:14.318Z,1023.15
2019-01-03T10:46:14.297Z,1023.18
2019-01-03T10:47:14.309Z,1023.14
2019-01-03T10:48:14.270Z,1023.16
2019-01-03T10:49:14.274Z,1023.13
2019-01-03T10:50:14.255Z,1023.15
2019-01-03T10:51:14.290Z,1023.14
2019-01-03T10:52:14.263Z,1023.14
2019-01-03T10:53:14.266Z,1023.17
2019-01-03T10:54:14.209Z,1023.15
2019-01-03T10:55:14.230Z,1023.10
2019-01-03T10:56:14.206Z,1023.04
2019-01-03T10:57:14.193Z,1023.05
2019-01-03T10:58:14.185Z,1023.03
2019-01-03T10:59:14.227Z,1022.99
2019-01-03T11:00:14.147Z,1022.93
2019-01-03T11:01:14.157Z,1022.93
2019-01-03T11:02:14.179Z,1022.89
2019-01-03T11:03:14.143Z,1022.86
2019-01-03T11:04:14.142Z,1022.87
2019-01-03T11:05:14.155Z,1022.85
2019-01-03T11:06:14.099Z,1022.84
2019-01-03T11:07:14.087Z,1022.85
2019-01-03T11:08:14.078Z,1022.85
2019-01-03T11:09:14.099Z,1022.84
2019-01-03T11:10:14.054Z,1022.83
2019-01-03T11:11:14.057Z,1022.82
2019-01-03T11:12:14.058Z,1022.84
2019-01-03T11:13:14.015Z,1022.84
2019-01-03T11:14:14.177Z,1022.82
2019-01-03T11:15:13.978Z,1022.78
2019-01-03T11:16:13.987Z,1022.78
2019-01-03T11:17:13.982Z,1022.84
2019-01-03T11:18:13.951Z,1022.80
2019-01-03T11:19:13.933Z,1022.74
2019-01-03T11:20:13.953Z,1022.74
2019-01-03T11:21:13.950Z,1022.72
2019-01-03T11:22:13.954Z,1022.73
2019-01-03T11:23:13.902Z,1022.71
2019-01-03T11:24:13.952Z,1022.75
2019-01-03T11:25:13.919Z,1022.74
2019-01-03T11:26:13.895Z,1022.77
2019-01-03T11:27:13.908Z,1022.77
2019-01-03T11:28:13.861Z,1022.73
2019-01-03T11:29:13.850Z,1022.67
2019-01-03T11:30:13.847Z,1022.67
2019-01-03T11:31:13.834Z,1022.63
2019-01-03T11:32:13.857Z,1022.66
2019-01-03T11:33:13.777Z,1022.67
2019-01-03T11:34:13.787Z,1022.61
2019-01-03T11:35:13.785Z,1022.65
2019-01-03T11:36:13.820Z,1022.62
2019-01-03T11:37:13.766Z,1022.58
2019-01-03T11:38:13.720Z,1022.61
2019-01-03T11:39:13.734Z,1022.64
2019-01-03T11:40:13.718Z,1022.64
2019-01-03T11:41:13.705Z,1022.55
2019-01-03T11:42:13.737Z,1022.52
2019-01-03T11:43:13.714Z,1022.55
2019-01-03T11:44:13.670Z,1022.55
2019-01-03T11:45:13.653Z,1022.56
2019-01-03T11:46:13.650Z,1022.51
2019-01-03T11:47:13.635Z,1022.46
2019-01-03T11:48:13.637Z,1022.48
2019-01-03T11:49:13.650Z,1022.47
2019-01-03T11:50:13.587Z,1022.48
2019-01-03T11:51:13.607Z,1022.44
2019-01-03T11:52:13.602Z,1022.40
2019-01-03T11:53:13.575Z,1022.37
2019-01-03T11:54:13.618Z,1022.36
2019-01-03T11:55:13.535Z,1022.38
2019-01-03T11:56:13.563Z,1022.35
2019-01-03T11:57:13.567Z,1022.38
2019-01-03T11:58:13.547Z,1022.38
2019-01-03T11:59:13.510Z,1022.34
2019-01-03T12:00:13.479Z,1022.33
2019-01-03T12:01:13.473Z,1022.33
2019-01-03T12:02:13.522Z,1022.36
2019-01-03T12:03:13.470Z,1022.39
2019-01-03T12:04:13.471Z,1022.37
2019-01-03T12:05:13.441Z,1022.36